createdAt,value
2016-11-18T00:00:16.669Z,11.53
2016-11-18T00:01:33.848Z,11.54
2016-11-18T00:02:50.183Z,11.52
2016-11-18T00:04:06.467Z,11.59
2016-11-18T00:05:22.806Z,11.53
2016-11-18T00:06:39.895Z,11.56
2016-11-18T00:07:56.720Z,11.54
2016-11-18T00:09:13.711Z,11.54
2016-11-18T00:10:30.866Z,11.62
2016-11-18T00:11:46.812Z,11.61
2016-11-18T00:13:01.754Z,11.54
2016-11-18T00:14:17.933Z,11.59
2016-11-18T00:15:32.650Z,11.54
2016-11-18T00:16:49.108Z,11.56
2016-11-18T00:18:04.522Z,11.5
2016-11-18T00:19:21.087Z,11.41
2016-11-18T00:20:37.671Z,11.47
2016-11-18T00:21:51.028Z,11.36
2016-11-18T00:23:05.551Z,11.35
2016-11-18T00:24:21.622Z,11.31
2016-11-18T00:25:35.879Z,11.31
2016-11-18T00:26:52.811Z,11.21
2016-11-18T00:28:09.377Z,11.34
2016-11-18T00:29:26.471Z,11.25
2016-11-18T00:30:42.752Z,11.27
2016-11-18T00:31:57.938Z,11.34
2016-11-18T00:33:11.338Z,11.27
2016-11-18T00:34:26.107Z,11.31
2016-11-18T00:35:41.935Z,11.36
2016-11-18T00:36:55.233Z,11.28
2016-11-18T00:38:10.893Z,11.34
2016-11-18T00:39:25.637Z,11.52
2016-11-18T00:40:40.318Z,11.46
2016-11-18T00:41:55.187Z,11.47
2016-11-18T00:43:09.049Z,11.46
2016-11-18T00:44:24.983Z,11.47
2016-11-18T00:45:38.141Z,11.53
2016-11-18T00:46:54.672Z,11.53
2016-11-18T00:48:10.609Z,11.56
2016-11-18T00:49:25.707Z,11.54
2016-11-18T00:50:40.234Z,11.56
2016-11-18T00:51:55.429Z,11.54
2016-11-18T00:53:11.054Z,11.5
2016-11-18T00:54:25.731Z,11.53
2016-11-18T00:55:40.908Z,11.49
2016-11-18T00:56:55.988Z,11.32
2016-11-18T00:58:10.502Z,11.2
2016-11-18T00:59:25.657Z,10.96
2016-11-18T01:00:40.368Z,10.81
2016-11-18T01:01:54.704Z,10.56
2016-11-18T01:03:10.584Z,10.46
2016-11-18T01:04:25.466Z,10.24
2016-11-18T01:05:40.593Z,9.96
2016-11-18T01:06:56.702Z,9.83
2016-11-18T01:08:11.357Z,9.81
2016-11-18T01:09:26.654Z,9.68
2016-11-18T01:10:43.118Z,9.64
2016-11-18T01:11:59.807Z,9.6
2016-11-18T01:13:14.077Z,9.43
2016-11-18T01:14:30.176Z,9.43
2016-11-18T01:15:46.876Z,9.28
2016-11-18T01:17:01.535Z,9.25
2016-11-18T01:18:16.711Z,9.27
2016-11-18T01:19:31.375Z,9.28
2016-11-18T01:20:46.862Z,9.24
2016-11-18T01:22:01.761Z,9.21
2016-11-18T01:23:16.916Z,9.27
2016-11-18T01:24:33.367Z,9.23
2016-11-18T01:25:48.364Z,9.23
2016-11-18T01:27:05.228Z,9.18
2016-11-18T01:28:18.453Z,9.16
2016-11-18T01:29:34.184Z,9.13
2016-11-18T01:30:49.395Z,9.12
2016-11-18T01:32:04.920Z,9.05
2016-11-18T01:33:19.495Z,9.1
2016-11-18T01:34:36.001Z,8.93
2016-11-18T01:35:52.962Z,8.93
2016-11-18T01:37:07.898Z,8.93
2016-11-18T01:38:23.782Z,8.91
2016-11-18T01:39:38.633Z,8.91
2016-11-18T01:40:53.467Z,8.91
2016-11-18T01:42:07.415Z,8.91
2016-11-18T01:43:23.708Z,8.91
2016-11-18T01:44:40.518Z,8.93
2016-11-18T01:45:57.473Z,8.94
2016-11-18T01:47:12.117Z,8.97
2016-11-18T01:48:26.880Z,8.91
2016-11-18T01:49:42.088Z,8.93
2016-11-18T01:50:55.176Z,8.96
2016-11-18T01:52:09.863Z,8.91
2016-11-18T01:53:26.509Z,8.93
2016-11-18T01:54:42.405Z,8.9
2016-11-18T01:55:59.087Z,8.88
2016-11-18T01:57:14.553Z,8.93
2016-11-18T01:58:29.218Z,8.91
2016-11-18T01:59:44.497Z,8.87
2016-11-18T02:00:58.385Z,8.87
2016-11-18T02:02:14.656Z,8.84
2016-11-18T02:03:28.605Z,8.83
2016-11-18T02:04:44.831Z,8.79
2016-11-18T02:05:59.536Z,8.86
2016-11-18T02:07:15.444Z,8.87
2016-11-18T02:08:30.793Z,8.9
2016-11-18T02:09:46.914Z,8.88
2016-11-18T02:11:01.979Z,8.83
2016-11-18T02:12:17.848Z,8.86
2016-11-18T02:13:32.267Z,8.93
2016-11-18T02:14:46.958Z,8.94
2016-11-18T02:16:03.277Z,8.93
2016-11-18T02:17:16.913Z,8.94
2016-11-18T02:18:33.207Z,8.94
2016-11-18T02:19:48.403Z,8.88
2016-11-18T02:21:04.531Z,8.88
2016-11-18T02:22:16.033Z,8.81
2016-11-18T02:23:28.863Z,8.86
2016-11-18T02:24:44.537Z,8.83
2016-11-18T02:25:59.675Z,8.84
2016-11-18T02:27:15.759Z,8.83
2016-11-18T02:28:30.504Z,8.76
2016-11-18T02:29:46.959Z,8.78
2016-11-18T02:31:01.637Z,8.78
2016-11-18T02:32:17.365Z,8.81
2016-11-18T02:33:31.985Z,8.78
2016-11-18T02:34:47.951Z,8.76
2016-11-18T02:36:03.898Z,8.66
2016-11-18T02:37:19.848Z,8.65
2016-11-18T02:38:34.758Z,8.73
2016-11-18T02:39:47.565Z,8.68
2016-11-18T02:41:04.096Z,8.73
2016-11-18T02:42:20.205Z,8.65
2016-11-18T02:43:34.774Z,8.79
2016-11-18T02:44:50.412Z,8.69
2016-11-18T02:46:06.284Z,8.81
2016-11-18T02:47:23.224Z,8.76
2016-11-18T02:48:38.245Z,8.63
2016-11-18T02:49:54.753Z,8.69
2016-11-18T02:51:11.046Z,8.69
2016-11-18T02:52:26.929Z,8.58
2016-11-18T02:53:42.438Z,8.66
2016-11-18T02:54:58.620Z,8.54
2016-11-18T02:56:08.976Z,8.65
2016-11-18T02:57:25.693Z,8.65
2016-11-18T02:58:39.991Z,8.62
2016-11-18T02:59:52.781Z,8.62
2016-11-18T03:01:07.044Z,8.53
2016-11-18T03:02:23.481Z,8.42
2016-11-18T03:03:36.930Z,8.44
2016-11-18T03:04:50.149Z,8.37
2016-11-18T03:06:06.456Z,8.44
2016-11-18T03:07:20.725Z,8.42
2016-11-18T03:08:37.016Z,8.4
2016-11-18T03:09:53.171Z,8.42
2016-11-18T03:11:08.622Z,8.42
2016-11-18T03:12:24.131Z,8.42
2016-11-18T03:13:38.919Z,8.42
2016-11-18T03:14:52.338Z,8.5
2016-11-18T03:16:09.459Z,8.4
2016-11-18T03:17:26.276Z,8.42
2016-11-18T03:18:41.606Z,8.44
2016-11-18T03:19:57.145Z,8.39
2016-11-18T03:21:13.186Z,8.36
2016-11-18T03:22:28.036Z,8.37
2016-11-18T03:23:42.362Z,8.32
2016-11-18T03:24:59.220Z,8.22
2016-11-18T03:26:14.182Z,8.29
2016-11-18T03:27:27.425Z,8.22
2016-11-18T03:28:42.365Z,8.28
2016-11-18T03:29:58.766Z,8.26
2016-11-18T03:31:13.512Z,8.32
2016-11-18T03:32:29.828Z,8.3
2016-11-18T03:33:46.535Z,8.37
2016-11-18T03:35:02.214Z,8.4
2016-11-18T03:36:17.927Z,8.4
2016-11-18T03:37:33.803Z,8.32
2016-11-18T03:38:49.671Z,8.28
2016-11-18T03:40:05.505Z,8.26
2016-11-18T03:41:20.654Z,8.29
2016-11-18T03:42:37.777Z,8.26
2016-11-18T03:43:50.896Z,8.29
2016-11-18T03:45:03.972Z,8.32
2016-11-18T03:46:20.027Z,8.26
2016-11-18T03:47:36.403Z,8.21
2016-11-18T03:48:52.436Z,8.25
2016-11-18T03:50:08.306Z,8.25
2016-11-18T03:51:21.614Z,8.21
2016-11-18T03:52:36.600Z,8.25
2016-11-18T03:53:51.886Z,8.26
2016-11-18T03:55:03.437Z,8.25
2016-11-18T03:56:18.086Z,8.17
2016-11-18T03:57:33.703Z,8.12
2016-11-18T03:58:49.792Z,8.2
2016-11-18T04:00:05.871Z,8.11
2016-11-18T04:01:21.882Z,8.11
2016-11-18T04:02:32.618Z,8.17
2016-11-18T04:03:47.156Z,8.12
2016-11-18T04:05:01.556Z,8.2
2016-11-18T04:06:16.856Z,8.14
2016-11-18T04:07:31.353Z,8.1
2016-11-18T04:08:47.583Z,8.17
2016-11-18T04:10:04.280Z,8.12
2016-11-18T04:11:18.000Z,8.22
2016-11-18T04:12:33.394Z,8.2
2016-11-18T04:13:48.377Z,8.28
2016-11-18T04:15:02.685Z,8.26
2016-11-18T04:16:17.122Z,8.18
2016-11-18T04:17:33.021Z,8.12
2016-11-18T04:18:49.072Z,8.11
2016-11-18T04:20:05.802Z,8.07
2016-11-18T04:21:21.935Z,8.21
2016-11-18T04:22:38.880Z,8.21
2016-11-18T04:23:55.609Z,8.21
2016-11-18T04:25:10.391Z,8.04
2016-11-18T04:26:25.131Z,8.04
2016-11-18T04:27:38.578Z,8.02
2016-11-18T04:28:54.546Z,8.02
2016-11-18T04:30:09.292Z,7.96
2016-11-18T04:31:24.206Z,7.87
2016-11-18T04:32:39.373Z,7.81
2016-11-18T04:33:52.381Z,7.72
2016-11-18T04:35:08.586Z,7.55
2016-11-18T04:36:23.262Z,7.5
2016-11-18T04:37:36.474Z,7.49
2016-11-18T04:38:53.343Z,7.42
2016-11-18T04:40:07.893Z,7.37
2016-11-18T04:41:23.145Z,7.32
2016-11-18T04:42:39.868Z,7.19
2016-11-18T04:43:54.767Z,7.19
2016-11-18T04:45:10.013Z,7.13
2016-11-18T04:46:24.877Z,7.16
2016-11-18T04:47:41.105Z,7.16
2016-11-18T04:48:55.627Z,7.12
2016-11-18T04:50:11.511Z,6.99
2016-11-18T04:51:26.174Z,7.04
2016-11-18T04:52:40.522Z,6.91
2016-11-18T04:53:57.188Z,6.99
2016-11-18T04:55:10.053Z,6.9
2016-11-18T04:56:23.649Z,6.95
2016-11-18T04:57:39.923Z,6.94
2016-11-18T04:58:55.396Z,6.94
2016-11-18T05:00:09.026Z,6.83
2016-11-18T05:01:20.533Z,6.83
2016-11-18T05:02:36.262Z,6.73
2016-11-18T05:03:49.329Z,6.83
2016-11-18T05:05:03.194Z,6.72
2016-11-18T05:06:19.478Z,6.62
2016-11-18T05:07:34.186Z,6.56
2016-11-18T05:08:51.111Z,6.56
2016-11-18T05:10:06.214Z,6.38
2016-11-18T05:11:22.146Z,6.3
2016-11-18T05:12:37.846Z,6.25
2016-11-18T05:13:53.905Z,6.14
2016-11-18T05:15:10.180Z,6.03
2016-11-18T05:16:23.411Z,6.1
2016-11-18T05:17:38.569Z,5.96
2016-11-18T05:18:52.007Z,5.98
2016-11-18T05:20:08.768Z,5.92
2016-11-18T05:21:25.659Z,5.92
2016-11-18T05:22:40.154Z,6.03
2016-11-18T05:23:56.834Z,5.89
2016-11-18T05:25:13.275Z,5.81
2016-11-18T05:26:28.799Z,5.75
2016-11-18T05:27:44.183Z,5.77
2016-11-18T05:29:01.344Z,5.67
2016-11-18T05:30:16.209Z,5.71
2016-11-18T05:31:32.569Z,5.7
2016-11-18T05:32:47.388Z,5.68
2016-11-18T05:34:02.441Z,5.74
2016-11-18T05:35:16.879Z,5.73
2016-11-18T05:36:33.036Z,5.71
2016-11-18T05:37:46.719Z,5.77
2016-11-18T05:39:01.934Z,5.7
2016-11-18T05:40:18.451Z,5.67
2016-11-18T05:41:34.533Z,5.78
2016-11-18T05:42:50.184Z,5.81
2016-11-18T05:44:06.209Z,5.82
2016-11-18T05:45:20.706Z,5.86
2016-11-18T05:46:36.611Z,5.78
2016-11-18T05:47:52.686Z,5.82
2016-11-18T05:49:08.696Z,5.88
2016-11-18T05:50:23.026Z,5.86
2016-11-18T05:51:38.902Z,5.91
2016-11-18T05:52:54.306Z,5.88
2016-11-18T05:54:09.837Z,5.83
2016-11-18T05:55:27.010Z,5.85
2016-11-18T05:56:43.165Z,5.85
2016-11-18T05:57:59.989Z,5.82
2016-11-18T05:59:14.723Z,5.82
2016-11-18T06:00:28.587Z,5.83
2016-11-18T06:01:43.173Z,5.82
2016-11-18T06:02:58.417Z,5.77
2016-11-18T06:04:13.069Z,5.75
2016-11-18T06:05:29.796Z,5.75
2016-11-18T06:06:46.074Z,5.75
2016-11-18T06:08:01.174Z,5.82
2016-11-18T06:09:15.978Z,5.82
2016-11-18T06:10:30.847Z,5.85
2016-11-18T06:11:47.169Z,5.75
2016-11-18T06:13:03.216Z,5.82
2016-11-18T06:14:19.388Z,5.75
2016-11-18T06:15:35.931Z,5.85
2016-11-18T06:16:50.399Z,5.78
2016-11-18T06:18:06.753Z,5.67
2016-11-18T06:19:22.882Z,5.66
2016-11-18T06:20:38.858Z,5.67
2016-11-18T06:21:55.112Z,5.75
2016-11-18T06:23:10.383Z,5.7
2016-11-18T06:24:26.372Z,5.66
2016-11-18T06:25:40.971Z,5.68
2016-11-18T06:26:56.090Z,5.67
2016-11-18T06:28:12.395Z,5.68
2016-11-18T06:29:27.565Z,5.66
2016-11-18T06:30:44.016Z,5.66
2016-11-18T06:31:58.936Z,5.6
2016-11-18T06:33:14.662Z,5.67
2016-11-18T06:34:28.961Z,5.68
2016-11-18T06:35:45.318Z,5.67
2016-11-18T06:36:58.614Z,5.71
2016-11-18T06:38:15.418Z,5.75
2016-11-18T06:39:30.234Z,5.78
2016-11-18T06:40:47.073Z,5.75
2016-11-18T06:42:03.116Z,5.78
2016-11-18T06:43:17.798Z,5.73
2016-11-18T06:44:33.360Z,5.7
2016-11-18T06:45:48.268Z,5.71
2016-11-18T06:47:03.221Z,5.71
2016-11-18T06:48:19.695Z,5.68
2016-11-18T06:49:36.496Z,5.73
2016-11-18T06:50:52.620Z,5.68
2016-11-18T06:52:06.272Z,5.71
2016-11-18T06:53:23.228Z,5.74
2016-11-18T06:54:37.933Z,5.68
2016-11-18T06:55:53.008Z,5.71
2016-11-18T06:57:06.147Z,5.67
2016-11-18T06:58:22.160Z,5.73
2016-11-18T06:59:37.378Z,5.77
2016-11-18T07:00:53.802Z,5.78
2016-11-18T07:02:10.766Z,5.74
2016-11-18T07:03:25.717Z,5.7
2016-11-18T07:04:42.175Z,5.75
2016-11-18T07:05:57.734Z,5.82
2016-11-18T07:07:14.027Z,5.75
2016-11-18T07:08:30.586Z,5.75
2016-11-18T07:09:47.364Z,5.67
2016-11-18T07:11:00.585Z,5.66
2016-11-18T07:12:16.696Z,5.59
2016-11-18T07:13:31.343Z,5.49
2016-11-18T07:14:46.162Z,5.5
2016-11-18T07:16:01.063Z,5.43
2016-11-18T07:17:17.675Z,5.4
2016-11-18T07:18:34.767Z,5.4
2016-11-18T07:19:48.256Z,5.45
2016-11-18T07:21:04.596Z,5.4
2016-11-18T07:22:20.967Z,5.4
2016-11-18T07:23:37.284Z,5.32
2016-11-18T07:24:53.529Z,5.3
2016-11-18T07:26:10.091Z,5.25
2016-11-18T07:27:26.766Z,5.28
2016-11-18T07:28:43.131Z,5.3
2016-11-18T07:29:59.456Z,5.32
2016-11-18T07:31:14.627Z,5.37
2016-11-18T07:32:31.741Z,5.27
2016-11-18T07:33:47.596Z,5.22
2016-11-18T07:35:02.216Z,5.28
2016-11-18T07:36:18.131Z,5.35
2016-11-18T07:37:34.071Z,5.25
2016-11-18T07:38:49.860Z,5.27
2016-11-18T07:40:05.328Z,5.3
2016-11-18T07:41:20.186Z,5.32
2016-11-18T07:42:35.316Z,5.57
2016-11-18T07:43:51.424Z,5.73
2016-11-18T07:45:07.101Z,6.03
2016-11-18T07:46:22.249Z,6.11
2016-11-18T07:47:37.463Z,6.03
2016-11-18T07:48:53.951Z,6
2016-11-18T07:50:11.081Z,5.96
2016-11-18T07:51:25.342Z,5.82
2016-11-18T07:52:41.880Z,5.77
2016-11-18T07:53:57.499Z,5.82
2016-11-18T07:55:13.541Z,5.78
2016-11-18T07:56:29.001Z,5.7
2016-11-18T07:57:45.034Z,5.7
2016-11-18T07:59:00.225Z,5.73
2016-11-18T08:00:16.743Z,5.74
2016-11-18T08:01:33.877Z,5.63
2016-11-18T08:02:49.940Z,5.59
2016-11-18T08:04:05.026Z,5.64
2016-11-18T08:05:21.154Z,5.6
2016-11-18T08:06:37.828Z,5.67
2016-11-18T08:07:52.415Z,5.63
2016-11-18T08:09:08.322Z,5.6
2016-11-18T08:10:24.433Z,5.6
2016-11-18T08:11:41.690Z,6.03
2016-11-18T08:12:57.846Z,6.62
2016-11-18T08:14:14.439Z,7.08
2016-11-18T08:15:29.331Z,7.05
2016-11-18T08:16:44.254Z,6.95
2016-11-18T08:17:58.919Z,6.73
2016-11-18T08:19:15.623Z,6.65
2016-11-18T08:20:27.621Z,6.62
2016-11-18T08:21:42.695Z,6.69
2016-11-18T08:22:57.528Z,7.04
2016-11-18T08:24:14.245Z,7.6
2016-11-18T08:25:29.580Z,8.15
2016-11-18T08:26:45.443Z,8.78
2016-11-18T08:28:00.930Z,9.49
2016-11-18T08:29:17.066Z,9.93
2016-11-18T08:30:32.219Z,10.4
2016-11-18T08:31:47.123Z,10.68
2016-11-18T08:33:01.859Z,10.94
2016-11-18T08:34:18.576Z,10.91
2016-11-18T08:35:35.134Z,10.74
2016-11-18T08:36:52.103Z,10.63
2016-11-18T08:38:08.841Z,10.76
2016-11-18T08:39:23.059Z,10.99
2016-11-18T08:40:36.683Z,11.27
2016-11-18T08:41:53.536Z,11.44
2016-11-18T08:43:10.025Z,11.86
2016-11-18T08:44:26.727Z,12.15
2016-11-18T08:45:43.676Z,12.37
2016-11-18T08:46:57.919Z,12.39
2016-11-18T08:48:11.217Z,12.11
2016-11-18T08:49:25.875Z,12.06
2016-11-18T08:50:40.630Z,11.8
2016-11-18T08:51:55.967Z,11.78
2016-11-18T08:53:11.230Z,11.77
2016-11-18T08:54:24.368Z,11.67
2016-11-18T08:55:39.926Z,11.44
2016-11-18T08:56:55.001Z,11.02
2016-11-18T08:58:08.435Z,10.6
2016-11-18T08:59:24.745Z,10.39
2016-11-18T09:00:40.354Z,10.09
2016-11-18T09:01:57.136Z,9.99
2016-11-18T09:03:13.666Z,10.07
2016-11-18T09:04:30.800Z,10.01
2016-11-18T09:05:42.790Z,10.01
2016-11-18T09:06:57.050Z,9.93
2016-11-18T09:08:13.415Z,9.96
2016-11-18T09:09:30.272Z,9.86
2016-11-18T09:10:47.245Z,9.81
2016-11-18T09:12:02.776Z,9.85
2016-11-18T09:13:17.983Z,9.73
2016-11-18T09:14:31.532Z,9.58
2016-11-18T09:15:48.608Z,9.63
2016-11-18T09:17:04.904Z,9.57
2016-11-18T09:18:19.139Z,9.86
2016-11-18T09:19:35.775Z,10
2016-11-18T09:20:52.042Z,10.1
2016-11-18T09:22:08.609Z,10.04
2016-11-18T09:23:23.728Z,10.01
2016-11-18T09:24:39.603Z,9.93
2016-11-18T09:25:55.104Z,9.85
2016-11-18T09:27:09.534Z,9.71
2016-11-18T09:28:23.798Z,9.66
2016-11-18T09:29:40.426Z,9.6
2016-11-18T09:30:54.231Z,9.49
2016-11-18T09:32:11.383Z,9.38
2016-11-18T09:33:27.866Z,9.3
2016-11-18T09:34:43.311Z,9.13
2016-11-18T09:35:59.624Z,8.99
2016-11-18T09:37:15.216Z,8.93
2016-11-18T09:38:31.274Z,8.9
2016-11-18T09:39:46.622Z,8.87
2016-11-18T09:41:00.070Z,8.84
2016-11-18T09:42:15.129Z,8.79
2016-11-18T09:43:28.488Z,8.81
2016-11-18T09:44:42.902Z,8.86
2016-11-18T09:45:59.633Z,8.86
2016-11-18T09:47:16.083Z,8.96
2016-11-18T09:48:31.970Z,9.04
2016-11-18T09:49:46.623Z,9.2
2016-11-18T09:51:03.338Z,9.27
2016-11-18T09:52:17.599Z,9.35
2016-11-18T09:53:31.479Z,9.48
2016-11-18T09:54:46.524Z,9.46
2016-11-18T09:56:03.400Z,9.48
2016-11-18T09:57:20.381Z,9.5
2016-11-18T09:58:35.820Z,9.57
2016-11-18T09:59:51.940Z,9.56
2016-11-18T10:01:08.237Z,9.5
2016-11-18T10:02:24.500Z,9.49
2016-11-18T10:03:37.637Z,9.39
2016-11-18T10:04:52.412Z,9.42
2016-11-18T10:06:08.734Z,9.39
2016-11-18T10:07:25.438Z,9.31
2016-11-18T10:08:40.215Z,9.38
2016-11-18T10:09:56.895Z,9.4
2016-11-18T10:11:13.405Z,9.42
2016-11-18T10:12:29.615Z,9.46
2016-11-18T10:13:46.046Z,9.52
2016-11-18T10:15:02.586Z,9.6
2016-11-18T10:16:19.375Z,9.85
2016-11-18T10:17:33.250Z,10.19
2016-11-18T10:18:48.399Z,10.43
2016-11-18T10:20:03.158Z,10.51
2016-11-18T10:21:18.316Z,10.71
2016-11-18T10:22:34.044Z,10.68
2016-11-18T10:23:49.544Z,10.96
2016-11-18T10:25:04.497Z,11.03
2016-11-18T10:26:20.791Z,11.38
2016-11-18T10:27:36.964Z,11.74
2016-11-18T10:28:53.489Z,11.72
2016-11-18T10:30:10.216Z,11.57
2016-11-18T10:31:26.261Z,11.31
2016-11-18T10:32:42.814Z,11.19
2016-11-18T10:33:58.179Z,10.91
2016-11-18T10:35:14.199Z,10.73
2016-11-18T10:36:29.524Z,10.56
2016-11-18T10:37:45.823Z,10.44
2016-11-18T10:38:59.257Z,10.44
2016-11-18T10:40:12.539Z,10.4
2016-11-18T10:41:27.609Z,10.42
2016-11-18T10:42:42.411Z,10.42
2016-11-18T10:43:59.203Z,10.44
2016-11-18T10:45:15.651Z,10.36
2016-11-18T10:46:30.880Z,10.42
2016-11-18T10:47:48.005Z,10.47
2016-11-18T10:49:03.290Z,10.44
2016-11-18T10:50:18.798Z,10.44
2016-11-18T10:51:35.393Z,10.53
2016-11-18T10:52:49.929Z,10.68
2016-11-18T10:54:05.308Z,10.59
2016-11-18T10:55:20.469Z,10.66
2016-11-18T10:56:36.131Z,10.71
2016-11-18T10:57:51.554Z,10.59
2016-11-18T10:59:08.005Z,10.6
2016-11-18T11:00:24.298Z,10.66
2016-11-18T11:01:38.902Z,10.66
2016-11-18T11:02:53.974Z,10.84
2016-11-18T11:04:10.254Z,10.8
2016-11-18T11:05:25.625Z,10.86
2016-11-18T11:06:42.351Z,10.94
2016-11-18T11:07:58.639Z,10.77
2016-11-18T11:09:15.734Z,10.47
2016-11-18T11:10:30.487Z,10.44
2016-11-18T11:11:47.155Z,10.19
2016-11-18T11:13:03.749Z,10.14
2016-11-18T11:14:18.338Z,10.07
2016-11-18T11:15:32.669Z,10.12
2016-11-18T11:16:48.886Z,10.09
2016-11-18T11:18:03.554Z,10.06
2016-11-18T11:19:19.574Z,10
2016-11-18T11:20:36.109Z,9.97
2016-11-18T11:21:52.378Z,10
2016-11-18T11:23:08.839Z,9.85
2016-11-18T11:24:24.716Z,9.97
2016-11-18T11:25:41.695Z,9.94
2016-11-18T11:26:56.451Z,9.99
2016-11-18T11:28:11.327Z,10.01
2016-11-18T11:29:26.055Z,10.01
2016-11-18T11:30:42.370Z,10.19
2016-11-18T11:31:58.986Z,10.19
2016-11-18T11:33:14.598Z,10.21
2016-11-18T11:34:31.135Z,10.06
2016-11-18T11:35:46.303Z,10.03
2016-11-18T11:37:01.265Z,10.09
2016-11-18T11:38:16.677Z,10.19
2016-11-18T11:39:30.221Z,10.19
2016-11-18T11:40:46.537Z,10.07
2016-11-18T11:42:03.803Z,10.3
2016-11-18T11:43:19.210Z,10.24
2016-11-18T11:44:34.218Z,10.19
2016-11-18T11:45:47.771Z,10.14
2016-11-18T11:47:04.360Z,10.12
2016-11-18T11:48:18.211Z,10.04
2016-11-18T11:49:32.694Z,10.18
2016-11-18T11:50:49.815Z,10.19
2016-11-18T11:52:05.976Z,10.26
2016-11-18T11:53:21.280Z,10.33
2016-11-18T11:54:36.377Z,10.19
2016-11-18T11:55:53.184Z,10.1
2016-11-18T11:57:06.707Z,10.01
2016-11-18T11:58:22.833Z,10.03
2016-11-18T11:59:39.390Z,9.93
2016-11-18T12:00:52.804Z,9.86
2016-11-18T12:02:09.324Z,9.88
2016-11-18T12:03:25.858Z,9.88
2016-11-18T12:04:40.936Z,9.86
2016-11-18T12:05:56.114Z,9.86
2016-11-18T12:07:12.714Z,9.81
2016-11-18T12:08:29.084Z,9.82
2016-11-18T12:09:46.300Z,9.85
2016-11-18T12:11:00.968Z,9.73
2016-11-18T12:12:18.006Z,9.7
2016-11-18T12:13:33.716Z,9.6
2016-11-18T12:14:49.859Z,9.61
2016-11-18T12:16:04.406Z,9.61
2016-11-18T12:17:20.347Z,9.5
2016-11-18T12:18:35.550Z,9.45
2016-11-18T12:19:51.290Z,9.45
2016-11-18T12:21:07.897Z,9.42
2016-11-18T12:22:21.623Z,9.43
2016-11-18T12:23:37.926Z,9.4
2016-11-18T12:24:53.376Z,9.45
2016-11-18T12:26:08.038Z,9.43
2016-11-18T12:27:24.112Z,9.42
2016-11-18T12:28:38.608Z,9.43
2016-11-18T12:29:52.460Z,9.28
2016-11-18T12:31:05.876Z,9.23
2016-11-18T12:32:22.417Z,9.2
2016-11-18T12:33:37.587Z,9.06
2016-11-18T12:34:52.665Z,9.06
2016-11-18T12:36:08.472Z,8.94
2016-11-18T12:37:25.485Z,8.94
2016-11-18T12:38:40.554Z,8.93
2016-11-18T12:39:55.871Z,9.01
2016-11-18T12:41:11.124Z,8.91
2016-11-18T12:42:24.411Z,8.93
2016-11-18T12:43:40.449Z,8.96
2016-11-18T12:44:56.215Z,9.04
2016-11-18T12:46:11.379Z,9.06
2016-11-18T12:47:25.912Z,9.15
2016-11-18T12:48:37.885Z,9.13
2016-11-18T12:49:52.725Z,9.09
2016-11-18T12:51:09.444Z,9.13
2016-11-18T12:52:26.560Z,9.12
2016-11-18T12:53:42.017Z,9.18
2016-11-18T12:54:57.118Z,9.1
2016-11-18T12:56:11.885Z,9.13
2016-11-18T12:57:26.424Z,9.13
2016-11-18T12:58:41.255Z,9.09
2016-11-18T12:59:58.502Z,9.06
2016-11-18T13:01:13.351Z,9.09
2016-11-18T13:02:29.512Z,9.02
2016-11-18T13:03:46.504Z,9.01
2016-11-18T13:05:01.424Z,9.04
2016-11-18T13:06:17.378Z,9.01
2016-11-18T13:07:33.758Z,9.04
2016-11-18T13:08:50.637Z,9.05
2016-11-18T13:10:03.729Z,8.97
2016-11-18T13:11:18.554Z,8.94
2016-11-18T13:12:34.457Z,8.94
2016-11-18T13:13:50.618Z,8.91
2016-11-18T13:15:05.469Z,8.96
2016-11-18T13:16:21.370Z,8.9
2016-11-18T13:17:36.260Z,8.91
2016-11-18T13:18:52.687Z,9.01
2016-11-18T13:20:08.285Z,9.01
2016-11-18T13:21:23.746Z,9.06
2016-11-18T13:22:39.388Z,9.05
2016-11-18T13:23:54.042Z,9.09
2016-11-18T13:25:10.773Z,9.04
2016-11-18T13:26:26.545Z,9.04
2016-11-18T13:27:41.474Z,8.96
2016-11-18T13:28:57.850Z,8.87
2016-11-18T13:30:11.175Z,8.86
2016-11-18T13:31:25.048Z,8.79
2016-11-18T13:32:40.326Z,8.88
2016-11-18T13:33:57.187Z,8.91
2016-11-18T13:35:12.974Z,8.83
2016-11-18T13:36:28.282Z,8.86
2016-11-18T13:37:43.527Z,8.88
2016-11-18T13:38:59.954Z,8.84
2016-11-18T13:40:15.822Z,8.83
2016-11-18T13:41:33.124Z,8.84
2016-11-18T13:42:47.216Z,8.83
2016-11-18T13:44:02.484Z,8.88
2016-11-18T13:45:17.098Z,8.86
2016-11-18T13:46:31.931Z,8.83
2016-11-18T13:47:46.895Z,8.88
2016-11-18T13:49:01.823Z,8.84
2016-11-18T13:50:18.322Z,8.81
2016-11-18T13:51:35.073Z,8.81
2016-11-18T13:52:51.355Z,8.78
2016-11-18T13:54:06.894Z,8.69
2016-11-18T13:55:23.798Z,8.62
2016-11-18T13:56:38.305Z,8.57
2016-11-18T13:57:55.212Z,8.6
2016-11-18T13:59:12.483Z,8.58
2016-11-18T14:00:28.212Z,8.58
2016-11-18T14:01:44.142Z,8.51
2016-11-18T14:03:00.406Z,8.53
2016-11-18T14:04:16.980Z,8.45
2016-11-18T14:05:33.511Z,8.44
2016-11-18T14:06:50.358Z,8.5
2016-11-18T14:08:05.380Z,8.5
2016-11-18T14:09:21.669Z,8.53
2016-11-18T14:10:35.055Z,8.58
2016-11-18T14:11:50.142Z,8.54
2016-11-18T14:13:03.693Z,8.55
2016-11-18T14:14:18.928Z,8.54
2016-11-18T14:15:35.073Z,8.62
2016-11-18T14:16:49.531Z,8.55
2016-11-18T14:18:06.067Z,8.44
2016-11-18T14:19:21.052Z,8.48
2016-11-18T14:20:36.837Z,8.36
2016-11-18T14:21:52.720Z,8.36
2016-11-18T14:23:05.110Z,8.22
2016-11-18T14:24:19.617Z,8.15
2016-11-18T14:25:36.497Z,8.18
2016-11-18T14:26:49.950Z,8.25
2016-11-18T14:28:07.112Z,8.28
2016-11-18T14:29:22.401Z,8.33
2016-11-18T14:30:38.949Z,8.42
2016-11-18T14:31:55.242Z,8.48
2016-11-18T14:33:10.081Z,8.53
2016-11-18T14:34:23.014Z,8.48
2016-11-18T14:35:38.377Z,8.37
2016-11-18T14:36:54.756Z,8.4
2016-11-18T14:38:10.011Z,8.39
2016-11-18T14:39:24.918Z,8.35
2016-11-18T14:40:41.577Z,8.37
2016-11-18T14:41:56.768Z,8.33
2016-11-18T14:43:13.327Z,8.36
2016-11-18T14:44:29.231Z,8.26
2016-11-18T14:45:45.924Z,8.26
2016-11-18T14:47:01.119Z,8.12
2016-11-18T14:48:16.211Z,8.1
2016-11-18T14:49:31.299Z,8.04
2016-11-18T14:50:46.986Z,8.02
2016-11-18T14:52:03.379Z,8.12
2016-11-18T14:53:18.284Z,8.04
2016-11-18T14:54:34.578Z,8.02
2016-11-18T14:55:49.477Z,8
2016-11-18T14:57:06.326Z,7.94
2016-11-18T14:58:22.874Z,7.97
2016-11-18T14:59:39.020Z,7.9
2016-11-18T15:00:52.877Z,7.92
2016-11-18T15:02:07.554Z,7.92
2016-11-18T15:03:22.299Z,7.82
2016-11-18T15:04:39.218Z,7.78
2016-11-18T15:05:52.184Z,7.77
2016-11-18T15:07:08.002Z,7.75
2016-11-18T15:08:23.173Z,7.74
2016-11-18T15:09:39.318Z,7.53
2016-11-18T15:10:55.185Z,7.66
2016-11-18T15:12:10.184Z,7.62
2016-11-18T15:13:27.020Z,7.56
2016-11-18T15:14:43.141Z,7.49
2016-11-18T15:15:59.543Z,7.55
2016-11-18T15:17:13.980Z,7.5
2016-11-18T15:18:30.563Z,7.49
2016-11-18T15:19:46.461Z,7.38
2016-11-18T15:21:03.008Z,7.34
2016-11-18T15:22:17.680Z,7.4
2016-11-18T15:23:33.940Z,7.32
2016-11-18T15:24:48.861Z,7.37
2016-11-18T15:26:05.860Z,7.32
2016-11-18T15:27:19.664Z,7.37
2016-11-18T15:28:36.386Z,7.29
2016-11-18T15:29:50.262Z,7.23
2016-11-18T15:31:06.682Z,7.2
2016-11-18T15:32:23.416Z,7.23
2016-11-18T15:33:39.308Z,7.26
2016-11-18T15:34:56.339Z,7.2
2016-11-18T15:36:12.494Z,7.17
2016-11-18T15:37:25.619Z,7.07
2016-11-18T15:38:40.187Z,6.99
2016-11-18T15:39:56.317Z,7.08
2016-11-18T15:41:12.205Z,7.04
2016-11-18T15:42:27.419Z,7.02
2016-11-18T15:43:42.345Z,6.91
2016-11-18T15:44:58.935Z,6.95
2016-11-18T15:46:15.235Z,6.91
2016-11-18T15:47:28.615Z,6.86
2016-11-18T15:48:43.646Z,6.83
2016-11-18T15:50:00.115Z,6.86
2016-11-18T15:51:15.555Z,6.69
2016-11-18T15:52:32.501Z,6.69
2016-11-18T15:53:49.000Z,6.76
2016-11-18T15:55:02.167Z,6.65
2016-11-18T15:56:18.332Z,6.62
2016-11-18T15:57:34.705Z,6.65
2016-11-18T15:58:50.168Z,6.66
2016-11-18T16:00:06.967Z,6.61
2016-11-18T16:01:23.806Z,6.56
2016-11-18T16:02:39.553Z,6.56
2016-11-18T16:03:55.057Z,6.54
2016-11-18T16:05:11.073Z,6.47
2016-11-18T16:06:27.960Z,6.44
2016-11-18T16:07:44.994Z,6.41
2016-11-18T16:09:01.285Z,6.5
2016-11-18T16:10:15.716Z,6.44
2016-11-18T16:11:32.525Z,6.44
2016-11-18T16:12:49.474Z,6.44
2016-11-18T16:14:06.410Z,6.4
2016-11-18T16:15:21.734Z,6.3
2016-11-18T16:16:38.428Z,6.28
2016-11-18T16:17:51.523Z,6.3
2016-11-18T16:19:06.345Z,6.29
2016-11-18T16:20:21.794Z,6.29
2016-11-18T16:21:38.715Z,6.14
2016-11-18T16:22:54.182Z,6.13
2016-11-18T16:24:10.529Z,6.18
2016-11-18T16:25:23.836Z,6.01
2016-11-18T16:26:39.999Z,6.06
2016-11-18T16:27:53.592Z,5.98
2016-11-18T16:29:10.130Z,6.07
2016-11-18T16:30:26.449Z,6.11
2016-11-18T16:31:41.270Z,6.06
2016-11-18T16:32:57.614Z,5.98
2016-11-18T16:34:10.342Z,5.98
2016-11-18T16:35:26.891Z,6.01
2016-11-18T16:36:42.398Z,6.04
2016-11-18T16:37:58.497Z,6.03
2016-11-18T16:39:12.844Z,6.1
2016-11-18T16:40:28.734Z,6.14
2016-11-18T16:41:43.490Z,6.14